Milk And Honey — WDF9265 — position and weather

sailwx.info

Track history (hours):
 
Tides and Currents Weather Stations Pressure Air Temp Water Temp Dewpoint Dewpoint Depression Visibility Wind Speed Wind Dir Waves Ship Positions

Milk And Honey

More information available from US FCC via Universal Licensing System and Coast Guard Vessel Documentation Center.

Last reported at 2014-Jul-23 21:34 UTC. Time now 2014-Jul-23 21:48 UTC.
Position N 41°00' W 072°17'.

Length 40 m.

Type: Pleasure craft. MMSI: 367503380.

Date/timePositionNaut miles runAvg speedWind from/ knotsBaromVisibWave heightAir tempDewpointWater temp
2014-Jul-23 21:34N 41°00' W 072°17'0 0.0
2014-Jul-23 20:33N 41°00' W 072°17'0 0.0
2014-Jul-23 19:33N 41°00' W 072°17'0 0.0
2014-Jul-23 18:33N 41°00' W 072°17'0 0.0
2014-Jul-23 17:33N 41°00' W 072°17'0 0.0
2014-Jul-23 16:33N 41°00' W 072°17'0 0.0
2014-Jul-23 15:33N 41°00' W 072°17'0 0.0
2014-Jul-23 14:33N 41°00' W 072°17'0 0.0
2014-Jul-23 13:33N 41°00' W 072°17'0 0.0
2014-Jul-23 12:33N 41°00' W 072°17'0 0.0
2014-Jul-23 11:33N 41°00' W 072°17'0 0.0
2014-Jul-23 10:33N 41°00' W 072°17'0 0.0
2014-Jul-23 09:33N 41°00' W 072°17'0 0.0
2014-Jul-23 08:33N 41°00' W 072°17'0 0.0
2014-Jul-23 07:33N 41°00' W 072°17'0 0.0
2014-Jul-23 06:33N 41°00' W 072°17'0 0.0
2014-Jul-23 05:33N 41°00' W 072°17'0 0.0
2014-Jul-23 04:34N 41°00' W 072°17'0 0.0
2014-Jul-23 03:33N 41°00' W 072°17'0 0.0
2014-Jul-23 02:33N 41°00' W 072°17'0 0.0
2014-Jul-23 01:33N 41°00' W 072°17'0 0.0
2014-Jul-23 00:33N 41°00' W 072°17'0 0.0
2014-Jul-22 23:33N 41°00' W 072°17'0 0.0
2014-Jul-22 22:33N 41°00' W 072°17'0 0.0
2014-Jul-22 21:33N 41°00' W 072°17'0 0.0
2014-Jul-22 20:33N 41°00' W 072°17'0 0.0
2014-Jul-22 19:33N 41°00' W 072°17'0 0.0
2014-Jul-22 18:33N 41°00' W 072°17'0 0.0
2014-Jul-22 17:33N 41°00' W 072°17'0 0.0
2014-Jul-22 16:33N 41°00' W 072°17'0 0.0
2014-Jul-22 15:28N 41°00' W 072°17'0 0.0
2014-Jul-22 14:33N 41°00' W 072°17'0 0.0
2014-Jul-22 13:33N 41°00' W 072°17'0 0.0
2014-Jul-22 12:33N 41°00' W 072°17'0 0.0
2014-Jul-22 11:33N 41°00' W 072°17'0 0.0
2014-Jul-22 10:33N 41°00' W 072°17'0 0.0
2014-Jul-22 09:33N 41°00' W 072°17'0 0.0
2014-Jul-22 08:33N 41°00' W 072°17'0 0.0
2014-Jul-22 07:33N 41°00' W 072°17'0 0.0
2014-Jul-22 06:33N 41°00' W 072°17'0 0.0
2014-Jul-22 05:33N 41°00' W 072°17'0 0.0
2014-Jul-22 04:33N 41°00' W 072°17'0 0.0
2014-Jul-22 03:33N 41°00' W 072°17'0 0.0
2014-Jul-22 02:33N 41°00' W 072°17'0 0.0
2014-Jul-22 01:33N 41°00' W 072°17'0 0.0
2014-Jul-22 00:33N 41°00' W 072°17'0 0.0
2014-Jul-21 23:33N 41°00' W 072°17'0 0.0
2014-Jul-21 22:33N 41°00' W 072°17'0 0.0
2014-Jul-21 21:33N 41°00' W 072°17'0 0.0
2014-Jul-21 20:33N 41°00' W 072°17'0 0.1
2014-Jul-21 20:18N 41°00' W 072°17'0 0.0
2014-Jul-21 19:34N 41°00' W 072°17'0 0.0
2014-Jul-21 18:33N 41°00' W 072°17'0 0.0
2014-Jul-21 17:33N 41°00' W 072°17'0 0.1
2014-Jul-21 17:20N 41°00' W 072°17'0 0.0
2014-Jul-21 16:33N 41°00' W 072°17'0 0.0
2014-Jul-21 15:33N 41°00' W 072°17'0 0.0
2014-Jul-21 14:33N 41°00' W 072°17'  
2014-Jul-16 08:25N 41°29' W 071°19'0 0.0
2014-Jul-16 07:25N 41°29' W 071°19'0 0.0
2014-Jul-16 05:33N 41°29' W 071°19'0 0.0
2014-Jul-16 04:15N 41°29' W 071°19'0 0.0
2014-Jul-16 03:30N 41°29' W 071°19'0 0.0
2014-Jul-15 15:33N 41°29' W 071°19'0 0.0
2014-Jul-15 11:24N 41°29' W 071°19'0 0.0
2014-Jul-15 06:30N 41°29' W 071°19'0 0.0
2014-Jul-15 04:33N 41°29' W 071°19'0 0.0
2014-Jul-15 03:30N 41°29' W 071°19'2 0.6
2014-Jul-14 23:34N 41°28' W 071°22'10 9.9
2014-Jul-14 22:33N 41°23' W 071°10'1110.9
2014-Jul-14 21:33N 41°27' W 070°57'1110.6
2014-Jul-14 20:33N 41°31' W 070°43'1211.0
2014-Jul-14 19:29N 41°26' W 070°29'3 2.4
2014-Jul-14 18:22N 41°23' W 070°30'0 0.0
2014-Jul-14 17:19N 41°23' W 070°30'0 0.0
2014-Jul-14 16:31N 41°23' W 070°30'0 0.0
2014-Jul-14 15:28N 41°23' W 070°30'0 0.0
2014-Jul-14 14:06N 41°23' W 070°30'5 7.8
2014-Jul-14 13:30N 41°27' W 070°26'18 3.4
2014-Jul-14 08:06N 41°17' W 070°06'0 0.0
2014-Jul-14 07:33N 41°17' W 070°06'0 0.0
2014-Jul-14 06:33N 41°17' W 070°06'0 0.0
2014-Jul-14 05:33N 41°17' W 070°06'0 0.0
2014-Jul-14 04:33N 41°17' W 070°06'0 0.0
2014-Jul-14 03:33N 41°17' W 070°06'0 0.0
2014-Jul-14 02:32N 41°17' W 070°06'0 0.0
2014-Jul-14 01:32N 41°17' W 070°06'0 0.0
2014-Jul-14 00:32N 41°17' W 070°06'0 0.0
2014-Jul-13 23:32N 41°17' W 070°06'0 0.0
2014-Jul-13 22:32N 41°17' W 070°06'  
Track history (hours):
 
Tides and Currents Weather Stations Pressure Air Temp Water Temp Dewpoint Dewpoint Depression Visibility Wind Speed Wind Dir Waves Ship Positions

Milk And Honey

More information available from US FCC via Universal Licensing System and Coast Guard Vessel Documentation Center.

Last reported at 2014-Jul-23 21:34 UTC. Time now 2014-Jul-23 21:48 UTC.
Position N 41°00' W 072°17'.

Length 40 m.

Type: Pleasure craft. MMSI: 367503380.

Date/timePositionNaut miles runAvg speedWind from/ knotsBaromVisibWave heightAir tempDewpointWater temp
2014-Jul-23 21:34N 41°00' W 072°17'0 0.0
2014-Jul-23 20:33N 41°00' W 072°17'0 0.0
2014-Jul-23 19:33N 41°00' W 072°17'0 0.0
2014-Jul-23 18:33N 41°00' W 072°17'0 0.0
2014-Jul-23 17:33N 41°00' W 072°17'0 0.0
2014-Jul-23 16:33N 41°00' W 072°17'0 0.0
2014-Jul-23 15:33N 41°00' W 072°17'0 0.0
2014-Jul-23 14:33N 41°00' W 072°17'0 0.0
2014-Jul-23 13:33N 41°00' W 072°17'0 0.0
2014-Jul-23 12:33N 41°00' W 072°17'0 0.0
2014-Jul-23 11:33N 41°00' W 072°17'0 0.0
2014-Jul-23 10:33N 41°00' W 072°17'0 0.0
2014-Jul-23 09:33N 41°00' W 072°17'0 0.0
2014-Jul-23 08:33N 41°00' W 072°17'0 0.0
2014-Jul-23 07:33N 41°00' W 072°17'0 0.0
2014-Jul-23 06:33N 41°00' W 072°17'0 0.0
2014-Jul-23 05:33N 41°00' W 072°17'0 0.0
2014-Jul-23 04:34N 41°00' W 072°17'0 0.0
2014-Jul-23 03:33N 41°00' W 072°17'0 0.0
2014-Jul-23 02:33N 41°00' W 072°17'0 0.0
2014-Jul-23 01:33N 41°00' W 072°17'0 0.0
2014-Jul-23 00:33N 41°00' W 072°17'0 0.0
2014-Jul-22 23:33N 41°00' W 072°17'0 0.0
2014-Jul-22 22:33N 41°00' W 072°17'0 0.0
2014-Jul-22 21:33N 41°00' W 072°17'0 0.0
2014-Jul-22 20:33N 41°00' W 072°17'0 0.0
2014-Jul-22 19:33N 41°00' W 072°17'0 0.0
2014-Jul-22 18:33N 41°00' W 072°17'0 0.0
2014-Jul-22 17:33N 41°00' W 072°17'0 0.0
2014-Jul-22 16:33N 41°00' W 072°17'0 0.0
2014-Jul-22 15:28N 41°00' W 072°17'0 0.0
2014-Jul-22 14:33N 41°00' W 072°17'0 0.0
2014-Jul-22 13:33N 41°00' W 072°17'0 0.0
2014-Jul-22 12:33N 41°00' W 072°17'0 0.0
2014-Jul-22 11:33N 41°00' W 072°17'0 0.0
2014-Jul-22 10:33N 41°00' W 072°17'0 0.0
2014-Jul-22 09:33N 41°00' W 072°17'0 0.0
2014-Jul-22 08:33N 41°00' W 072°17'0 0.0
2014-Jul-22 07:33N 41°00' W 072°17'0 0.0
2014-Jul-22 06:33N 41°00' W 072°17'0 0.0
2014-Jul-22 05:33N 41°00' W 072°17'0 0.0
2014-Jul-22 04:33N 41°00' W 072°17'0 0.0
2014-Jul-22 03:33N 41°00' W 072°17'0 0.0
2014-Jul-22 02:33N 41°00' W 072°17'0 0.0
2014-Jul-22 01:33N 41°00' W 072°17'0 0.0
2014-Jul-22 00:33N 41°00' W 072°17'0 0.0
2014-Jul-21 23:33N 41°00' W 072°17'0 0.0
2014-Jul-21 22:33N 41°00' W 072°17'0 0.0
2014-Jul-21 21:33N 41°00' W 072°17'0 0.0
2014-Jul-21 20:33N 41°00' W 072°17'0 0.1
2014-Jul-21 20:18N 41°00' W 072°17'0 0.0
2014-Jul-21 19:34N 41°00' W 072°17'0 0.0
2014-Jul-21 18:33N 41°00' W 072°17'0 0.0
2014-Jul-21 17:33N 41°00' W 072°17'0 0.1
2014-Jul-21 17:20N 41°00' W 072°17'0 0.0
2014-Jul-21 16:33N 41°00' W 072°17'0 0.0
2014-Jul-21 15:33N 41°00' W 072°17'0 0.0
2014-Jul-21 14:33N 41°00' W 072°17'  
2014-Jul-16 08:25N 41°29' W 071°19'0 0.0
2014-Jul-16 07:25N 41°29' W 071°19'0 0.0
2014-Jul-16 05:33N 41°29' W 071°19'0 0.0
2014-Jul-16 04:15N 41°29' W 071°19'0 0.0
2014-Jul-16 03:30N 41°29' W 071°19'0 0.0
2014-Jul-15 15:33N 41°29' W 071°19'0 0.0
2014-Jul-15 11:24N 41°29' W 071°19'0 0.0
2014-Jul-15 06:30N 41°29' W 071°19'0 0.0
2014-Jul-15 04:33N 41°29' W 071°19'0 0.0
2014-Jul-15 03:30N 41°29' W 071°19'2 0.6
2014-Jul-14 23:34N 41°28' W 071°22'10 9.9
2014-Jul-14 22:33N 41°23' W 071°10'1110.9
2014-Jul-14 21:33N 41°27' W 070°57'1110.6
2014-Jul-14 20:33N 41°31' W 070°43'1211.0
2014-Jul-14 19:29N 41°26' W 070°29'3 2.4
2014-Jul-14 18:22N 41°23' W 070°30'0 0.0
2014-Jul-14 17:19N 41°23' W 070°30'0 0.0
2014-Jul-14 16:31N 41°23' W 070°30'0 0.0
2014-Jul-14 15:28N 41°23' W 070°30'0 0.0
2014-Jul-14 14:06N 41°23' W 070°30'5 7.8
2014-Jul-14 13:30N 41°27' W 070°26'18 3.4
2014-Jul-14 08:06N 41°17' W 070°06'0 0.0
2014-Jul-14 07:33N 41°17' W 070°06'0 0.0
2014-Jul-14 06:33N 41°17' W 070°06'0 0.0
2014-Jul-14 05:33N 41°17' W 070°06'0 0.0
2014-Jul-14 04:33N 41°17' W 070°06'0 0.0
2014-Jul-14 03:33N 41°17' W 070°06'0 0.0
2014-Jul-14 02:32N 41°17' W 070°06'0 0.0
2014-Jul-14 01:32N 41°17' W 070°06'0 0.0
2014-Jul-14 00:32N 41°17' W 070°06'0 0.0
2014-Jul-13 23:32N 41°17' W 070°06'0 0.0
2014-Jul-13 22:32N 41°17' W 070°06'  

Dump ship's entire track history